createdAt,value
2023-02-12T00:00:46.498Z,5.78
2023-02-12T00:03:12.953Z,6.30
2023-02-12T00:05:39.487Z,6.78
2023-02-12T00:08:05.972Z,6.82
2023-02-12T00:10:32.366Z,7.35
2023-02-12T00:12:58.810Z,6.38
2023-02-12T00:15:25.260Z,6.38
2023-02-12T00:17:51.699Z,7.00
2023-02-12T00:20:18.097Z,6.97
2023-02-12T00:22:44.604Z,6.93
2023-02-12T00:25:10.999Z,7.45
2023-02-12T00:27:37.376Z,8.77
2023-02-12T00:30:03.808Z,7.20
2023-02-12T00:32:30.251Z,7.68
2023-02-12T00:34:56.640Z,6.80
2023-02-12T00:37:23.040Z,6.65
2023-02-12T00:39:49.461Z,6.95
2023-02-12T00:42:15.838Z,7.07
2023-02-12T00:44:42.284Z,7.43
2023-02-12T00:47:08.706Z,7.78
2023-02-12T00:49:35.089Z,6.55
2023-02-12T00:52:01.542Z,7.32
2023-02-12T00:54:27.989Z,7.70
2023-02-12T00:56:54.535Z,7.25
2023-02-12T00:59:20.998Z,7.20
2023-02-12T01:01:47.488Z,7.00
2023-02-12T01:04:13.935Z,7.15
2023-02-12T01:06:40.367Z,6.80
2023-02-12T01:09:06.810Z,6.68
2023-02-12T01:11:33.221Z,7.30
2023-02-12T01:13:59.613Z,6.90
2023-02-12T01:16:26.188Z,6.50
2023-02-12T01:18:55.511Z,6.82
2023-02-12T01:21:22.359Z,7.10
2023-02-12T01:23:49.037Z,6.35
2023-02-12T01:26:15.461Z,6.95
2023-02-12T01:28:41.905Z,6.68
2023-02-12T01:31:08.327Z,6.38
2023-02-12T01:33:34.743Z,6.43
2023-02-12T01:36:01.179Z,6.35
2023-02-12T01:38:27.793Z,6.20
2023-02-12T01:40:54.218Z,5.85
2023-02-12T01:43:20.680Z,7.07
2023-02-12T01:45:47.069Z,6.28
2023-02-12T01:48:13.516Z,7.10
2023-02-12T01:50:39.923Z,6.78
2023-02-12T01:53:06.351Z,6.20
2023-02-12T01:55:32.821Z,6.80
2023-02-12T01:57:59.271Z,6.85
2023-02-12T02:00:25.749Z,7.03
2023-02-12T02:02:52.178Z,7.25
2023-02-12T02:05:18.619Z,6.47
2023-02-12T02:07:45.074Z,6.88
2023-02-12T02:10:11.485Z,6.35
2023-02-12T02:12:37.873Z,7.05
2023-02-12T02:15:04.318Z,6.65
2023-02-12T02:17:30.755Z,7.03
2023-02-12T02:19:57.286Z,6.90
2023-02-12T02:22:23.740Z,6.53
2023-02-12T02:24:50.236Z,7.13
2023-02-12T02:27:16.685Z,7.95
2023-02-12T02:29:43.338Z,7.78
2023-02-12T02:32:09.876Z,7.68
2023-02-12T02:34:36.334Z,7.10
2023-02-12T02:37:02.776Z,6.85
2023-02-12T02:39:29.268Z,6.57
2023-02-12T02:41:55.646Z,7.28
2023-02-12T02:44:22.056Z,7.50
2023-02-12T02:46:48.487Z,7.25
2023-02-12T02:49:15.098Z,7.65
2023-02-12T02:51:41.552Z,7.72
2023-02-12T02:54:08.008Z,8.13
2023-02-12T02:56:34.426Z,7.05
2023-02-12T02:59:00.870Z,7.85
2023-02-12T03:01:27.617Z,7.63
2023-02-12T03:03:54.015Z,7.13
2023-02-12T03:06:20.480Z,7.55
2023-02-12T03:08:46.944Z,8.52
2023-02-12T03:11:13.339Z,7.07
2023-02-12T03:13:39.792Z,8.00
2023-02-12T03:16:06.255Z,6.78
2023-02-12T03:18:32.663Z,7.18
2023-02-12T03:20:59.125Z,7.80
2023-02-12T03:23:25.585Z,6.90
2023-02-12T03:25:52.059Z,6.20
2023-02-12T03:28:18.562Z,7.43
2023-02-12T03:30:45.164Z,7.57
2023-02-12T03:33:11.623Z,7.38
2023-02-12T03:35:37.993Z,7.20
2023-02-12T03:38:04.392Z,8.63
2023-02-12T03:40:30.789Z,7.40
2023-02-12T03:42:57.609Z,7.82
2023-02-12T03:45:24.008Z,7.50
2023-02-12T03:47:50.430Z,7.38
2023-02-12T03:50:16.872Z,7.13
2023-02-12T03:52:43.356Z,7.05
2023-02-12T03:55:09.758Z,7.68
2023-02-12T03:57:36.126Z,7.65
2023-02-12T04:00:02.547Z,7.63
2023-02-12T04:02:28.987Z,7.30
2023-02-12T04:04:55.379Z,7.53
2023-02-12T04:07:21.753Z,6.43
2023-02-12T04:09:48.187Z,6.05
2023-02-12T04:12:14.573Z,6.15
2023-02-12T04:14:40.948Z,5.70
2023-02-12T04:17:07.468Z,5.70
2023-02-12T04:19:33.990Z,5.88
2023-02-12T04:22:00.432Z,6.43
2023-02-12T04:24:26.863Z,6.25
2023-02-12T04:26:53.293Z,5.63
2023-02-12T04:29:19.913Z,5.22
2023-02-12T04:31:46.531Z,5.72
2023-02-12T04:34:13.058Z,4.65
2023-02-12T04:36:39.450Z,4.72
2023-02-12T04:39:05.925Z,4.30
2023-02-12T04:41:32.412Z,4.50
2023-02-12T04:43:58.826Z,4.07
2023-02-12T04:46:25.359Z,4.13
2023-02-12T04:48:51.820Z,4.18
2023-02-12T04:51:18.795Z,4.97
2023-02-12T04:53:45.188Z,4.35
2023-02-12T04:56:11.619Z,4.07
2023-02-12T04:58:38.044Z,4.43
2023-02-12T05:01:04.470Z,3.55
2023-02-12T05:03:30.944Z,3.47
2023-02-12T05:05:57.723Z,3.92
2023-02-12T05:08:24.266Z,4.38
2023-02-12T05:10:50.657Z,3.90
2023-02-12T05:13:17.047Z,4.45
2023-02-12T05:15:43.516Z,4.80
2023-02-12T05:18:09.962Z,3.92
2023-02-12T05:20:36.383Z,3.50
2023-02-12T05:23:02.813Z,3.50
2023-02-12T05:25:29.255Z,3.17
2023-02-12T05:27:55.657Z,2.42
2023-02-12T05:30:22.072Z,2.60
2023-02-12T05:32:48.521Z,3.05
2023-02-12T05:35:14.973Z,3.85
2023-02-12T05:37:41.369Z,4.13
2023-02-12T05:40:07.733Z,3.65
2023-02-12T05:42:34.158Z,4.63
2023-02-12T05:45:00.563Z,3.53
2023-02-12T05:47:26.959Z,3.80
2023-02-12T05:49:53.357Z,3.42
2023-02-12T05:52:20.080Z,3.30
2023-02-12T05:54:46.537Z,4.05
2023-02-12T05:57:12.982Z,3.92
2023-02-12T05:59:39.438Z,4.50
2023-02-12T06:02:05.927Z,3.78
2023-02-12T06:04:32.377Z,4.40
2023-02-12T06:06:58.766Z,4.50
2023-02-12T06:09:25.247Z,5.15
2023-02-12T06:11:51.666Z,5.53
2023-02-12T06:14:18.147Z,4.90
2023-02-12T06:16:44.560Z,5.90
2023-02-12T06:19:11.005Z,6.78
2023-02-12T06:21:37.411Z,6.35
2023-02-12T06:24:03.793Z,5.90
2023-02-12T06:26:30.193Z,6.40
2023-02-12T06:28:56.586Z,6.28
2023-02-12T06:31:23.094Z,6.65
2023-02-12T06:33:49.592Z,6.72
2023-02-12T06:36:16.053Z,5.97
2023-02-12T06:38:42.459Z,5.82
2023-02-12T06:41:08.891Z,6.50
2023-02-12T06:43:35.267Z,6.95
2023-02-12T06:46:01.704Z,7.25
2023-02-12T06:48:28.110Z,7.07
2023-02-12T06:50:54.590Z,7.47
2023-02-12T06:53:21.051Z,7.80
2023-02-12T06:55:47.470Z,7.68
2023-02-12T06:58:13.920Z,8.75
2023-02-12T07:00:40.433Z,8.05
2023-02-12T07:03:07.081Z,9.27
2023-02-12T07:05:33.519Z,8.15
2023-02-12T07:07:59.980Z,8.95
2023-02-12T07:10:26.380Z,8.75
2023-02-12T07:12:52.818Z,8.80
2023-02-12T07:15:19.565Z,9.55
2023-02-12T07:17:45.953Z,10.00
2023-02-12T07:20:12.393Z,10.90
2023-02-12T07:22:38.919Z,10.32
2023-02-12T07:25:05.343Z,9.48
2023-02-12T07:27:31.745Z,9.38
2023-02-12T07:29:58.123Z,9.48
2023-02-12T07:32:24.607Z,9.90
2023-02-12T07:34:51.050Z,10.43
2023-02-12T07:37:17.504Z,10.63
2023-02-12T07:39:43.920Z,10.07
2023-02-12T07:42:10.373Z,9.50
2023-02-12T07:44:36.801Z,9.35
2023-02-12T07:47:03.173Z,9.23
2023-02-12T07:49:29.594Z,10.60
2023-02-12T07:51:55.966Z,10.90
2023-02-12T07:54:22.371Z,11.35
2023-02-12T07:56:48.863Z,10.73
2023-02-12T07:59:15.258Z,10.55
2023-02-12T08:01:41.652Z,11.13
2023-02-12T08:04:08.150Z,11.50
2023-02-12T08:06:34.626Z,10.75
2023-02-12T08:09:01.029Z,11.43
2023-02-12T08:11:27.669Z,12.43
2023-02-12T08:13:54.101Z,13.80
2023-02-12T08:16:20.539Z,11.48
2023-02-12T08:18:46.934Z,11.00
2023-02-12T08:21:13.342Z,12.77
2023-02-12T08:23:39.772Z,13.00
2023-02-12T08:26:06.290Z,13.23
2023-02-12T08:28:32.716Z,13.25
2023-02-12T08:30:59.224Z,11.73
2023-02-12T08:33:25.618Z,12.45
2023-02-12T08:35:52.051Z,13.02
2023-02-12T08:38:18.581Z,13.30
2023-02-12T08:40:45.094Z,11.57
2023-02-12T08:43:11.500Z,12.77
2023-02-12T08:45:37.965Z,12.68
2023-02-12T08:48:04.373Z,14.00
2023-02-12T08:50:30.815Z,12.90
2023-02-12T08:52:57.241Z,13.07
2023-02-12T08:55:23.872Z,12.52
2023-02-12T08:57:50.304Z,12.70
2023-02-12T09:00:16.763Z,12.77
2023-02-12T09:02:43.239Z,13.02
2023-02-12T09:05:09.704Z,12.18
2023-02-12T09:07:36.160Z,11.57
2023-02-12T09:10:02.561Z,13.88
2023-02-12T09:12:29.067Z,13.43
2023-02-12T09:14:55.454Z,12.48
2023-02-12T09:17:21.909Z,13.63
2023-02-12T09:19:48.535Z,12.18
2023-02-12T09:22:14.985Z,16.70
2023-02-12T09:24:41.474Z,13.57
2023-02-12T09:27:07.950Z,15.30
2023-02-12T09:29:34.348Z,14.00
2023-02-12T09:32:00.793Z,13.05
2023-02-12T09:34:27.210Z,14.68
2023-02-12T09:36:53.618Z,14.77
2023-02-12T09:39:20.006Z,13.23
2023-02-12T09:41:46.481Z,15.38
2023-02-12T09:44:12.895Z,14.55
2023-02-12T09:46:39.320Z,14.43
2023-02-12T09:49:05.765Z,13.40
2023-02-12T09:51:32.213Z,13.50
2023-02-12T09:53:58.785Z,13.85
2023-02-12T09:56:25.217Z,13.32
2023-02-12T09:58:51.614Z,13.45
2023-02-12T10:01:18.171Z,12.35
2023-02-12T10:03:44.702Z,14.73
2023-02-12T10:06:11.170Z,14.70
2023-02-12T10:08:37.634Z,14.70
2023-02-12T10:11:04.045Z,13.63
2023-02-12T10:13:30.511Z,14.18
2023-02-12T10:15:57.461Z,14.18
2023-02-12T10:18:24.175Z,13.18
2023-02-12T10:20:50.611Z,14.60
2023-02-12T10:23:16.992Z,13.85
2023-02-12T10:25:43.425Z,12.45
2023-02-12T10:28:09.911Z,12.95
2023-02-12T10:30:36.341Z,13.23
2023-02-12T10:33:02.798Z,14.13
2023-02-12T10:35:29.210Z,12.80
2023-02-12T10:37:55.611Z,12.23
2023-02-12T10:40:22.038Z,11.82
2023-02-12T10:42:48.656Z,11.60
2023-02-12T10:45:15.116Z,11.52
2023-02-12T10:47:41.519Z,10.43
2023-02-12T10:50:07.897Z,9.57
2023-02-12T10:52:34.333Z,9.50
2023-02-12T10:55:00.802Z,10.00
2023-02-12T10:57:27.194Z,9.70
2023-02-12T10:59:53.654Z,9.98
2023-02-12T11:02:20.077Z,9.25
2023-02-12T11:04:46.524Z,10.45
2023-02-12T11:07:13.025Z,10.98
2023-02-12T11:09:39.433Z,10.80
2023-02-12T11:12:05.895Z,10.43
2023-02-12T11:14:32.361Z,10.05
2023-02-12T11:16:58.955Z,10.15
2023-02-12T11:19:25.350Z,9.50
2023-02-12T11:21:51.797Z,9.07
2023-02-12T11:24:18.382Z,9.38
2023-02-12T11:26:44.806Z,9.73
2023-02-12T11:29:11.363Z,8.45
2023-02-12T11:31:37.914Z,7.65
2023-02-12T11:34:04.401Z,8.60
2023-02-12T11:36:30.830Z,9.05
2023-02-12T11:38:57.248Z,8.00
2023-02-12T11:41:23.633Z,8.00
2023-02-12T11:43:51.900Z,7.18
2023-02-12T11:46:18.671Z,7.38
2023-02-12T11:48:45.132Z,7.50
2023-02-12T11:51:11.580Z,7.35
2023-02-12T11:53:37.962Z,7.35
2023-02-12T11:56:04.827Z,7.38
2023-02-12T11:58:31.455Z,8.25
2023-02-12T12:00:57.934Z,7.38
2023-02-12T12:03:24.416Z,6.60
2023-02-12T12:05:50.902Z,6.97
2023-02-12T12:08:17.308Z,6.93
2023-02-12T12:10:43.749Z,6.45
2023-02-12T12:13:10.226Z,6.70
2023-02-12T12:15:36.706Z,6.03
2023-02-12T12:18:03.106Z,6.68
2023-02-12T12:20:29.627Z,7.07
2023-02-12T12:22:56.187Z,6.75
2023-02-12T12:25:22.653Z,6.97
2023-02-12T12:27:49.073Z,7.05
2023-02-12T12:30:15.496Z,7.65
2023-02-12T12:32:41.934Z,6.93
2023-02-12T12:35:08.392Z,6.60
2023-02-12T12:37:34.817Z,6.75
2023-02-12T12:40:01.277Z,8.13
2023-02-12T12:42:28.472Z,8.10
2023-02-12T12:44:54.971Z,7.38
2023-02-12T12:47:21.403Z,7.05
2023-02-12T12:49:47.854Z,7.50
2023-02-12T12:52:14.221Z,8.27
2023-02-12T12:54:40.679Z,7.75
2023-02-12T12:57:07.248Z,6.47
2023-02-12T12:59:33.725Z,6.10
2023-02-12T13:02:00.302Z,6.18
2023-02-12T13:04:26.753Z,7.30
2023-02-12T13:06:53.178Z,7.30
2023-02-12T13:09:19.731Z,7.07
2023-02-12T13:11:46.120Z,6.38
2023-02-12T13:14:12.563Z,7.75
2023-02-12T13:16:39.047Z,6.80
2023-02-12T13:19:05.496Z,6.60
2023-02-12T13:21:31.876Z,5.57
2023-02-12T13:23:58.260Z,6.47
2023-02-12T13:26:24.730Z,6.65
2023-02-12T13:28:51.179Z,5.97
2023-02-12T13:31:32.385Z,6.95
2023-02-12T13:33:59.276Z,7.70
2023-02-12T13:36:25.766Z,7.43
2023-02-12T13:38:52.155Z,6.32
2023-02-12T13:41:18.786Z,6.82
2023-02-12T13:43:45.232Z,5.88
2023-02-12T13:46:11.677Z,5.32
2023-02-12T13:48:38.065Z,4.35
2023-02-12T13:51:04.472Z,5.78
2023-02-12T13:53:30.868Z,5.20
2023-02-12T13:55:57.523Z,5.60
2023-02-12T13:58:24.265Z,5.60
2023-02-12T14:00:50.703Z,5.15
2023-02-12T14:03:17.167Z,6.82
2023-02-12T14:05:43.793Z,9.77
2023-02-12T14:08:10.201Z,9.63
2023-02-12T14:10:36.626Z,8.20
2023-02-12T14:13:03.018Z,8.18
2023-02-12T14:15:29.493Z,7.45
2023-02-12T14:17:55.953Z,7.45
2023-02-12T14:20:22.352Z,6.90
2023-02-12T14:22:48.796Z,7.40
2023-02-12T14:25:15.229Z,7.78
2023-02-12T14:27:41.730Z,7.97
2023-02-12T14:30:08.149Z,8.10
2023-02-12T14:32:34.525Z,7.47
2023-02-12T14:35:01.006Z,8.27
2023-02-12T14:37:27.585Z,9.00
2023-02-12T14:39:53.976Z,8.00
2023-02-12T14:42:20.406Z,8.25
2023-02-12T14:44:46.847Z,8.50
2023-02-12T14:47:13.310Z,8.70
2023-02-12T14:49:39.697Z,9.35
2023-02-12T14:52:06.126Z,9.13
2023-02-12T14:54:32.581Z,8.88
2023-02-12T14:56:59.029Z,8.55
2023-02-12T14:59:25.449Z,8.52
2023-02-12T15:01:51.917Z,8.18
2023-02-12T15:04:18.447Z,8.75
2023-02-12T15:06:44.921Z,9.57
2023-02-12T15:09:11.377Z,9.25
2023-02-12T15:11:37.842Z,8.85
2023-02-12T15:14:04.306Z,8.20
2023-02-12T15:16:30.901Z,8.68
2023-02-12T15:18:57.619Z,8.32
2023-02-12T15:21:24.003Z,7.95
2023-02-12T15:23:50.441Z,8.88
2023-02-12T15:26:16.908Z,9.20
2023-02-12T15:28:43.303Z,8.63
2023-02-12T15:31:09.878Z,8.70
2023-02-12T15:33:36.372Z,7.97
2023-02-12T15:36:02.780Z,9.30
2023-02-12T15:38:29.171Z,7.55
2023-02-12T15:40:55.547Z,7.72
2023-02-12T15:43:22.011Z,8.07
2023-02-12T15:45:48.690Z,8.30
2023-02-12T15:48:15.136Z,8.00
2023-02-12T15:50:41.568Z,8.10
2023-02-12T15:53:08.025Z,8.68
2023-02-12T15:55:34.414Z,8.80
2023-02-12T15:58:00.888Z,8.40
2023-02-12T16:00:27.339Z,8.65
2023-02-12T16:02:53.718Z,7.78
2023-02-12T16:05:20.160Z,7.95
2023-02-12T16:07:46.597Z,7.65
2023-02-12T16:10:12.977Z,6.97
2023-02-12T16:12:39.440Z,8.32
2023-02-12T16:15:05.909Z,7.85
2023-02-12T16:17:32.387Z,8.20
2023-02-12T16:19:59.044Z,7.20
2023-02-12T16:22:25.419Z,8.00
2023-02-12T16:24:51.859Z,8.52
2023-02-12T16:27:19.054Z,7.75
2023-02-12T16:29:45.462Z,9.02
2023-02-12T16:32:11.873Z,7.85
2023-02-12T16:34:38.284Z,7.60
2023-02-12T16:37:04.784Z,7.97
2023-02-12T16:39:31.340Z,8.23
2023-02-12T16:41:57.999Z,7.90
2023-02-12T16:44:24.457Z,7.72
2023-02-12T16:46:50.926Z,7.90
2023-02-12T16:49:17.361Z,8.40
2023-02-12T16:51:43.774Z,7.63
2023-02-12T16:54:10.242Z,8.27
2023-02-12T16:56:36.704Z,8.10
2023-02-12T16:59:03.150Z,7.72
2023-02-12T17:01:29.628Z,7.47
2023-02-12T17:03:56.032Z,7.95
2023-02-12T17:06:22.466Z,7.95
2023-02-12T17:08:48.926Z,7.22
2023-02-12T17:11:15.366Z,7.45
2023-02-12T17:13:41.771Z,7.38
2023-02-12T17:16:08.992Z,7.78
2023-02-12T17:18:35.526Z,6.55
2023-02-12T17:21:02.023Z,6.88
2023-02-12T17:23:28.467Z,7.38
2023-02-12T17:25:55.099Z,8.27
2023-02-12T17:28:21.946Z,7.82
2023-02-12T17:30:48.802Z,8.40
2023-02-12T17:33:15.308Z,7.68
2023-02-12T17:35:41.758Z,7.10
2023-02-12T17:38:08.148Z,7.72
2023-02-12T17:40:34.610Z,7.35
2023-02-12T17:43:01.058Z,7.95
2023-02-12T17:45:27.495Z,7.30
2023-02-12T17:47:54.069Z,7.40
2023-02-12T17:50:20.478Z,7.43
2023-02-12T17:52:47.289Z,8.77
2023-02-12T17:55:13.776Z,7.93
2023-02-12T17:57:40.280Z,8.25
2023-02-12T18:00:06.734Z,8.80
2023-02-12T18:02:33.164Z,7.53
2023-02-12T18:04:59.613Z,8.60
2023-02-12T18:07:26.081Z,8.02
2023-02-12T18:09:52.538Z,8.35
2023-02-12T18:12:18.971Z,8.00
2023-02-12T18:14:45.356Z,8.95
2023-02-12T18:17:11.776Z,8.23
2023-02-12T18:19:38.209Z,8.10
2023-02-12T18:22:04.633Z,7.72
2023-02-12T18:24:31.132Z,7.85
2023-02-12T18:26:57.684Z,7.47
2023-02-12T18:29:24.317Z,8.80
2023-02-12T18:31:50.792Z,8.95
2023-02-12T18:34:17.197Z,8.25
2023-02-12T18:36:43.604Z,8.90
2023-02-12T18:39:10.024Z,8.02
2023-02-12T18:41:36.401Z,7.32
2023-02-12T18:44:02.851Z,8.23
2023-02-12T18:46:29.340Z,8.20
2023-02-12T18:48:55.809Z,8.30
2023-02-12T18:51:22.295Z,7.65
2023-02-12T18:53:48.932Z,8.50
2023-02-12T18:56:15.335Z,8.13
2023-02-12T18:58:41.817Z,7.70
2023-02-12T19:01:08.278Z,8.15
2023-02-12T19:03:34.707Z,7.93
2023-02-12T19:06:01.140Z,9.32
2023-02-12T19:08:27.701Z,8.40
2023-02-12T19:10:54.331Z,8.38
2023-02-12T19:13:20.986Z,8.52
2023-02-12T19:15:47.477Z,8.68
2023-02-12T19:18:13.986Z,7.95
2023-02-12T19:20:40.384Z,7.00
2023-02-12T19:23:06.783Z,7.60
2023-02-12T19:25:33.206Z,7.82
2023-02-12T19:27:59.731Z,9.13
2023-02-12T19:30:26.134Z,10.05
2023-02-12T19:32:52.603Z,8.57
2023-02-12T19:35:19.025Z,7.82
2023-02-12T19:37:45.441Z,8.00
2023-02-12T19:40:11.919Z,7.95
2023-02-12T19:42:38.317Z,7.53
2023-02-12T19:45:04.743Z,7.90
2023-02-12T19:47:31.203Z,8.85
2023-02-12T19:49:58.027Z,8.18
2023-02-12T19:52:24.450Z,8.80
2023-02-12T19:54:50.848Z,8.82
2023-02-12T19:57:17.271Z,9.27
2023-02-12T19:59:43.751Z,7.95
2023-02-12T20:02:10.180Z,8.98
2023-02-12T20:04:36.573Z,8.10
2023-02-12T20:07:03.010Z,8.88
2023-02-12T20:09:29.450Z,8.15
2023-02-12T20:11:55.910Z,8.95
2023-02-12T20:14:22.316Z,9.40
2023-02-12T20:16:48.936Z,9.18
2023-02-12T20:19:15.532Z,8.98
2023-02-12T20:21:41.947Z,8.07
2023-02-12T20:24:08.385Z,8.55
2023-02-12T20:26:34.827Z,8.35
2023-02-12T20:29:02.833Z,7.80
2023-02-12T20:31:31.116Z,8.05
2023-02-12T20:33:57.733Z,8.30
2023-02-12T20:36:24.185Z,7.40
2023-02-12T20:38:50.587Z,8.35
2023-02-12T20:41:16.985Z,7.68
2023-02-12T20:43:44.449Z,8.32
2023-02-12T20:46:10.818Z,8.02
2023-02-12T20:48:37.259Z,7.78
2023-02-12T20:51:03.667Z,7.55
2023-02-12T20:53:30.051Z,7.35
2023-02-12T20:55:56.482Z,8.43
2023-02-12T20:58:22.853Z,7.97
2023-02-12T21:00:49.279Z,7.03
2023-02-12T21:03:15.678Z,8.52
2023-02-12T21:05:42.113Z,7.63
2023-02-12T21:08:08.520Z,8.65
2023-02-12T21:10:34.903Z,8.43
2023-02-12T21:13:01.304Z,8.82
2023-02-12T21:15:28.044Z,7.75
2023-02-12T21:17:54.581Z,10.10
2023-02-12T21:20:21.058Z,9.70
2023-02-12T21:22:47.506Z,9.07
2023-02-12T21:25:13.917Z,8.10
2023-02-12T21:27:40.413Z,8.75
2023-02-12T21:30:06.874Z,8.52
2023-02-12T21:32:33.513Z,8.73
2023-02-12T21:34:59.923Z,8.13
2023-02-12T21:37:26.341Z,9.02
2023-02-12T21:39:52.737Z,9.45
2023-02-12T21:42:19.169Z,9.32
2023-02-12T21:44:45.544Z,9.85
2023-02-12T21:47:12.055Z,9.48
2023-02-12T21:49:38.479Z,9.13
2023-02-12T21:52:04.867Z,9.00
2023-02-12T21:54:31.340Z,8.95
2023-02-12T21:56:58.012Z,8.85
2023-02-12T21:59:24.419Z,9.18
2023-02-12T22:01:50.822Z,10.00
2023-02-12T22:04:17.242Z,9.00
2023-02-12T22:06:43.649Z,8.75
2023-02-12T22:09:10.063Z,9.18
2023-02-12T22:11:36.475Z,8.77
2023-02-12T22:14:02.922Z,8.02
2023-02-12T22:16:29.337Z,8.85
2023-02-12T22:18:55.777Z,8.90
2023-02-12T22:21:22.165Z,8.95
2023-02-12T22:23:48.901Z,9.25
2023-02-12T22:26:15.310Z,9.05
2023-02-12T22:28:41.736Z,9.25
2023-02-12T22:31:08.165Z,9.48
2023-02-12T22:33:34.558Z,10.52
2023-02-12T22:36:01.396Z,9.73
2023-02-12T22:38:28.545Z,9.35
2023-02-12T22:40:55.301Z,10.35
2023-02-12T22:43:22.047Z,9.63
2023-02-12T22:45:48.683Z,8.90
2023-02-12T22:48:15.298Z,9.80
2023-02-12T22:50:41.742Z,8.68
2023-02-12T22:53:08.192Z,8.98
2023-02-12T22:55:34.590Z,9.63
2023-02-12T22:58:01.061Z,10.43
2023-02-12T23:00:27.453Z,10.35
2023-02-12T23:02:53.845Z,10.18
2023-02-12T23:05:20.270Z,8.60
2023-02-12T23:07:46.953Z,9.05
2023-02-12T23:10:13.390Z,9.07
2023-02-12T23:12:39.839Z,8.68
2023-02-12T23:15:06.291Z,9.75
2023-02-12T23:17:32.742Z,9.63
2023-02-12T23:19:59.144Z,9.32
2023-02-12T23:22:25.551Z,7.63
2023-02-12T23:24:52.031Z,8.38
2023-02-12T23:27:18.640Z,8.85
2023-02-12T23:29:45.062Z,8.93
2023-02-12T23:32:11.497Z,8.85
2023-02-12T23:34:37.944Z,7.85
2023-02-12T23:37:04.374Z,8.05
2023-02-12T23:39:30.781Z,8.88
2023-02-12T23:41:57.655Z,8.73
2023-02-12T23:44:24.085Z,9.40
2023-02-12T23:46:50.453Z,8.73
2023-02-12T23:49:16.888Z,8.75
2023-02-12T23:51:43.302Z,8.43
2023-02-12T23:54:09.734Z,8.93
2023-02-12T23:56:36.178Z,7.47
2023-02-12T23:59:02.614Z,8.77
